Strona główna
METAR-TAF:

METAR-TAF

Lotnisko :

Port lotniczy Turku

Turku, Finlandia

Szerokość geograficzna: 60-31N, Długość geograficzna: 022-16E, wysokość: 49 m

Aktualna obserwacja pogody

Raport powstał 39 minut temu, godzina 19:50 UTC
Wiatr 6 kt od północny wschód
Temperatura 17°C
Wilgotność 36%
Ciśnienie 1027 hPa
Widzialność 10 km lub więcej
Brak chmur poniżej 1500 m i brak chmur cumulonimbus

METAR: EFTU 301950Z AUTO 05006KT CAVOK 17/02 Q1027

czas: 23:29 (20:29 UTC)

Prognoza

Raport powstał 2 godziny i 58 minut temu, godzina 17:31 UTC
Prognoza ważna od 30 godzina 18 UTC do 31 godzina 18 UTC
Wiatr 11 kt od północny wschód
Widzialność 10 km lub więcej
Brak chmur poniżej 1500 m i brak chmur cumulonimbus

TAF: EFTU 301731Z 3018/3118 05011KT CAVOK

Obserwacja i prognoza pogody dla ponad 4000 lotnisk (raport METAR i TAF).

Dostępne stacje oznaczono żółtymi i czerwonymi punktami na mapie.

Najedź kursorem aby zobaczyć nazwę stacji.

Kliknij aby zobaczyć obserwacje i prognozy pogody.

Aby zmienić mapę: kliknij na zielony przycisk z czarnym krzyżykiem, aby powiększyć; na zielony przycisk z myślnikiem, aby pomniejszyć; na zielone strzałki, aby przejść do map sąsiednich.


METAR-TAF: